Time;durP1;ratioP1;P1;durP2;ratioP2;P2;SDS_P1;SDS_P2;PMS_P1;PMS_P2;Temp;Humidity;BMP_temperature;BMP_pressure;BME280_temperature;BME280_humidity;BME280_pressure;Samples;Min_cycle;Max_cycle;Signal;HPM_P1;HPM_P2
2023/02/27 00:01:39;;;;;;;3.33;1.48;;;18.90;43.10;;;;;;5110579;28;20092;-69
2023/02/27 00:04:05;;;;;;;2.65;0.63;;;18.90;43.10;;;;;;5114410;27;20091;-67
2023/02/27 00:06:32;;;;;;;6.70;1.30;;;18.90;43.00;;;;;;5124335;27;20074;-67
2023/02/27 00:08:58;;;;;;;1.80;0.88;;;19.00;43.00;;;;;;5117138;27;21754;-69
2023/02/27 00:11:24;;;;;;;2.72;1.20;;;18.70;42.50;;;;;;5116727;27;20098;-68
2023/02/27 00:13:51;;;;;;;6.50;1.38;;;18.80;42.70;;;;;;5121357;27;20083;-66
2023/02/27 00:16:17;;;;;;;2.33;1.30;;;18.60;42.80;;;;;;5117935;27;20079;-67
2023/02/27 00:18:44;;;;;;;6.05;2.08;;;18.70;43.30;;;;;;5120957;27;20114;-68
2023/02/27 00:21:10;;;;;;;5.18;2.00;;;18.70;42.70;;;;;;5118919;27;20075;-69
2023/02/27 00:23:37;;;;;;;1.65;1.10;;;18.60;42.70;;;;;;5117583;27;20820;-69
2023/02/27 00:26:03;;;;;;;4.65;1.35;;;18.40;42.50;;;;;;5121271;27;20067;-69
2023/02/27 00:28:30;;;;;;;2.05;1.35;;;18.40;42.40;;;;;;5121184;27;20113;-69
2023/02/27 00:30:56;;;;;;;3.35;1.20;;;18.20;42.60;;;;;;5117132;27;20083;-68
2023/02/27 00:33:22;;;;;;;3.55;1.52;;;18.10;42.60;;;;;;5115947;27;20154;-69
2023/02/27 00:36:00;;;;;;;11.27;1.52;;;18.00;42.70;;;;;;5111826;27;20132;-68
2023/02/27 00:38:27;;;;;;;4.38;1.13;;;18.00;42.90;;;;;;5119799;27;20083;-65
2023/02/27 00:40:53;;;;;;;5.78;1.83;;;18.10;42.70;;;;;;5117618;27;20079;-67
2023/02/27 00:43:20;;;;;;;20.77;1.90;;;17.90;43.20;;;;;;5121480;27;20430;-68
2023/02/27 00:45:47;;;;;;;30.02;3.33;;;17.80;44.00;;;;;;5116550;27;20140;-68
2023/02/27 00:48:15;;;;;;;11.10;1.90;;;17.80;44.10;;;;;;5117997;27;20515;-67
2023/02/27 00:50:41;;;;;;;3.28;1.02;;;17.80;44.40;;;;;;5116325;27;20073;-65
2023/02/27 00:53:08;;;;;;;10.70;1.70;;;17.60;44.10;;;;;;5120895;27;20153;-65
2023/02/27 00:55:34;;;;;;;9.80;2.80;;;17.50;44.60;;;;;;5119495;27;20120;-65
2023/02/27 00:58:01;;;;;;;29.77;2.53;;;17.40;44.30;;;;;;5121090;27;20528;-66
2023/02/27 01:00:27;;;;;;;8.52;2.75;;;17.40;44.40;;;;;;5122332;27;20076;-67
2023/02/27 01:02:54;;;;;;;4.70;1.95;;;17.30;44.50;;;;;;5118454;27;20162;-66
2023/02/27 01:05:20;;;;;;;6.30;2.00;;;17.30;44.40;;;;;;5123919;27;20094;-67
2023/02/27 01:07:47;;;;;;;6.75;1.63;;;17.20;44.20;;;;;;5113755;27;20079;-67
2023/02/27 01:10:14;;;;;;;4.18;1.77;;;17.10;44.60;;;;;;5114892;27;20116;-67
2023/02/27 01:12:40;;;;;;;11.20;3.60;;;17.00;45.00;;;;;;5114210;27;20090;-68
2023/02/27 01:15:08;;;;;;;4.18;1.70;;;16.80;45.00;;;;;;5120644;27;20435;-64
2023/02/27 01:17:35;;;;;;;4.20;1.40;;;16.80;45.50;;;;;;5121088;27;20640;-65
2023/02/27 01:20:02;;;;;;;3.67;0.98;;;16.80;45.60;;;;;;5122182;27;20553;-65
2023/02/27 01:22:28;;;;;;;5.63;1.30;;;16.70;46.10;;;;;;5120450;27;20075;-65
2023/02/27 01:24:54;;;;;;;3.35;1.10;;;16.50;46.70;;;;;;5118227;27;20110;-62
2023/02/27 01:27:21;;;;;;;2.67;1.00;;;16.40;47.00;;;;;;5121730;27;20079;-63
2023/02/27 01:29:47;;;;;;;6.50;1.20;;;16.30;47.30;;;;;;5118027;27;20079;-62
2023/02/27 01:32:13;;;;;;;87.53;3.65;;;16.30;47.90;;;;;;5119204;27;20072;-63
2023/02/27 01:34:40;;;;;;;5.18;1.17;;;16.30;48.60;;;;;;5119446;27;20064;-63
2023/02/27 01:37:06;;;;;;;18.73;2.30;;;16.20;48.50;;;;;;5119478;27;20090;-65
2023/02/27 01:39:33;;;;;;;3.40;1.75;;;16.10;48.80;;;;;;5114220;27;20087;-65
2023/02/27 01:42:00;;;;;;;4.47;1.77;;;16.10;48.90;;;;;;5101472;27;20074;-64
2023/02/27 01:44:28;;;;;;;4.55;1.50;;;16.00;49.10;;;;;;5117944;27;20071;-64
2023/02/27 01:46:56;;;;;;;7.03;1.88;;;16.00;48.90;;;;;;5117791;27;20064;-64
2023/02/27 01:49:30;;;;;;;7.22;1.52;;;15.90;49.30;;;;;;5119772;27;20098;-65
2023/02/27 01:52:02;;;;;;;5.43;2.92;;;15.90;49.30;;;;;;5112617;27;20072;-66
2023/02/27 01:54:31;;;;;;;11.55;5.43;;;15.70;49.70;;;;;;5117240;27;20083;-65
2023/02/27 01:56:57;;;;;;;23.42;10.60;;;15.60;50.10;;;;;;5120003;27;20081;-66
2023/02/27 01:59:24;;;;;;;17.02;6.88;;;15.50;50.60;;;;;;5115185;27;20541;-66
2023/02/27 02:01:51;;;;;;;9.77;4.95;;;15.40;50.80;;;;;;5114655;27;20065;-65
2023/02/27 02:04:32;;;;;;;13.25;4.43;;;15.50;51.00;;;;;;5117848;27;20068;-65
2023/02/27 02:07:06;;;;;;;5.78;2.42;;;15.40;51.00;;;;;;5111473;27;20113;-66
2023/02/27 02:09:36;;;;;;;6.50;2.15;;;15.30;51.00;;;;;;5120898;27;20119;-66
2023/02/27 02:12:04;;;;;;;14.15;2.33;;;15.20;51.20;;;;;;5113754;27;20163;-66
2023/02/27 02:14:30;;;;;;;12.25;2.78;;;15.30;51.50;;;;;;5121406;27;20587;-65
2023/02/27 02:17:14;;;;;;;19.05;8.00;;;15.20;51.40;;;;;;5116784;27;20078;-66
2023/02/27 02:20:06;;;;;;;8.02;2.72;;;15.10;51.60;;;;;;5113452;27;20202;-64
2023/02/27 02:22:51;;;;;;;15.98;5.68;;;15.00;51.40;;;;;;5116755;27;20094;-66
2023/02/27 02:25:55;;;;;;;14.45;5.53;;;14.90;51.70;;;;;;5111010;27;20076;-65
2023/02/27 02:28:34;;;;;;;13.65;4.82;;;14.90;51.60;;;;;;5113786;27;20157;-66
2023/02/27 02:31:19;;;;;;;9.10;3.75;;;14.90;51.80;;;;;;5115716;27;20072;-66
2023/02/27 02:34:03;;;;;;;9.23;3.53;;;14.80;52.00;;;;;;5115820;27;20062;-66
2023/02/27 02:36:45;;;;;;;9.38;2.80;;;14.80;52.20;;;;;;5117372;27;20151;-65
2023/02/27 02:39:40;;;;;;;7.93;2.28;;;14.80;52.10;;;;;;5120118;27;20095;-66
2023/02/27 02:42:26;;;;;;;11.00;2.63;;;14.70;52.50;;;;;;5116869;27;20167;-67
2023/02/27 02:45:08;;;;;;;9.40;2.45;;;14.60;52.90;;;;;;5115521;27;20083;-67
2023/02/27 02:48:06;;;;;;;10.18;4.03;;;14.60;53.20;;;;;;5110906;27;20218;-66
2023/02/27 02:51:03;;;;;;;7.40;3.75;;;14.50;53.50;;;;;;5057564;28;20093;-65
2023/02/27 02:53:51;;;;;;;11.70;3.37;;;14.40;53.90;;;;;;5056619;28;20081;-67
2023/02/27 02:56:21;;;;;;;10.20;3.25;;;14.40;54.30;;;;;;5059315;28;20403;-65
2023/02/27 02:59:13;;;;;;;12.18;3.35;;;14.40;54.50;;;;;;5058743;28;20152;-67
2023/02/27 03:02:01;;;;;;;10.75;2.95;;;14.40;54.50;;;;;;5061484;28;20069;-66
2023/02/27 03:04:41;;;;;;;7.13;3.42;;;14.40;54.70;;;;;;5057924;28;20074;-65
2023/02/27 03:07:13;;;;;;;13.52;4.90;;;14.20;54.70;;;;;;5056693;28;20078;-65
2023/02/27 03:10:13;;;;;;;19.73;6.13;;;14.10;55.00;;;;;;5058429;28;20100;-65
2023/02/27 03:12:43;;;;;;;13.15;4.38;;;14.10;55.10;;;;;;5051862;28;20541;-65
2023/02/27 03:15:19;;;;;;;11.65;4.72;;;14.00;55.30;;;;;;5058139;28;20185;-64
2023/02/27 03:17:58;;;;;;;16.13;4.00;;;14.00;55.50;;;;;;5059123;28;20077;-67
2023/02/27 03:20:41;;;;;;;17.27;3.50;;;14.00;55.40;;;;;;5058755;28;20157;-66
2023/02/27 03:23:21;;;;;;;11.75;3.30;;;14.00;55.40;;;;;;5058630;28;20142;-65
2023/02/27 03:25:50;;;;;;;14.13;4.72;;;14.00;55.80;;;;;;5077197;28;20075;-64
2023/02/27 03:28:28;;;;;;;13.13;4.28;;;14.00;55.70;;;;;;5113136;28;20088;-67
2023/02/27 03:30:59;;;;;;;10.60;3.53;;;14.00;56.10;;;;;;5114405;28;20076;-65
2023/02/27 03:33:35;;;;;;;10.52;4.32;;;13.90;56.30;;;;;;5113256;28;20521;-66
2023/02/27 03:36:13;;;;;;;13.45;4.65;;;13.80;56.60;;;;;;5114139;28;20082;-63
2023/02/27 03:39:04;;;;;;;18.85;6.15;;;13.80;57.60;;;;;;5112829;28;20086;-66
2023/02/27 03:41:33;;;;;;;23.27;9.52;;;13.70;57.90;;;;;;5122454;27;20071;-66
2023/02/27 03:44:06;;;;;;;14.25;6.72;;;13.60;58.60;;;;;;5119844;27;20413;-65
2023/02/27 03:46:34;;;;;;;21.40;7.63;;;13.50;58.70;;;;;;5119208;27;20106;-64
2023/02/27 03:49:00;;;;;;;12.38;4.05;;;13.40;59.10;;;;;;5120627;27;20106;-64
2023/02/27 03:51:27;;;;;;;15.60;4.95;;;13.40;59.10;;;;;;5118512;27;20072;-66
2023/02/27 03:54:05;;;;;;;21.45;5.10;;;13.30;59.50;;;;;;5121057;27;20064;-65
2023/02/27 03:56:44;;;;;;;17.58;5.22;;;13.30;59.70;;;;;;5117808;27;20072;-65
2023/02/27 03:59:11;;;;;;;15.20;5.22;;;13.30;60.00;;;;;;5113201;27;20428;-64
2023/02/27 04:01:37;;;;;;;15.20;4.47;;;13.30;60.00;;;;;;5112791;27;20064;-65
2023/02/27 04:04:09;;;;;;;12.45;4.22;;;13.20;60.40;;;;;;5114547;27;20068;-65
2023/02/27 04:09:48;;;;;;;12.80;3.42;;;12.90;61.30;;;;;;5111366;27;20111;-63
2023/02/27 04:12:51;;;;;;;15.52;4.15;;;12.80;62.10;;;;;;5110724;27;20076;-65
2023/02/27 04:15:30;;;;;;;9.05;3.25;;;12.90;61.90;;;;;;5118994;27;20130;-64
2023/02/27 04:18:27;;;;;;;14.70;3.75;;;12.90;61.80;;;;;;5113500;27;20079;-63
2023/02/27 04:21:48;;;;;;;13.20;2.95;;;12.90;61.80;;;;;;5111375;27;20079;-64
2023/02/27 04:24:47;;;;;;;11.48;3.40;;;12.80;62.00;;;;;;5061539;28;20080;-66
2023/02/27 04:27:37;;;;;;;21.40;4.28;;;12.80;62.40;;;;;;4973713;28;20083;-64
2023/02/27 04:30:33;;;;;;;13.85;3.17;;;12.80;62.30;;;;;;4973386;28;20133;-65
2023/02/27 04:33:10;;;;;;;11.73;4.30;;;12.70;62.70;;;;;;4974196;28;20105;-64
2023/02/27 04:35:58;;;;;;;10.60;2.88;;;12.70;62.80;;;;;;4973309;28;20079;-64
2023/02/27 04:38:39;;;;;;;10.82;2.67;;;12.70;62.90;;;;;;4970217;28;20091;-66
2023/02/27 04:41:13;;;;;;;13.52;3.78;;;12.60;63.10;;;;;;4970185;28;20071;-64
2023/02/27 04:43:41;;;;;;;17.60;4.20;;;12.50;63.50;;;;;;4970641;28;20452;-64
2023/02/27 04:46:13;;;;;;;15.48;4.38;;;12.40;64.30;;;;;;4969988;28;20098;-63
2023/02/27 04:49:07;;;;;;;14.70;3.53;;;12.40;64.50;;;;;;4976411;28;20083;-64
2023/02/27 04:51:50;;;;;;;17.58;7.13;;;12.50;63.90;;;;;;4973849;28;20457;-65
2023/02/27 04:54:25;;;;;;;19.13;4.97;;;12.40;65.10;;;;;;4978580;28;20079;-66
2023/02/27 04:56:56;;;;;;;17.42;5.68;;;12.40;65.00;;;;;;4979045;28;20133;-66
2023/02/27 04:59:34;;;;;;;22.10;4.93;;;12.40;65.00;;;;;;5035668;28;20105;-65
2023/02/27 05:02:23;;;;;;;18.00;5.93;;;12.40;64.70;;;;;;5054420;27;20083;-65
2023/02/27 05:04:54;;;;;;;18.58;5.70;;;12.30;65.60;;;;;;5120078;27;20163;-66
2023/02/27 05:07:26;;;;;;;13.38;4.72;;;12.20;65.80;;;;;;5114549;27;20103;-64
2023/02/27 05:10:13;;;;;;;18.10;5.80;;;12.20;65.50;;;;;;5121022;27;20072;-65
2023/02/27 05:12:57;;;;;;;11.60;4.18;;;12.20;66.10;;;;;;5116358;27;20087;-66
2023/02/27 05:15:53;;;;;;;11.02;3.72;;;12.10;65.50;;;;;;5120266;27;20068;-64
2023/02/27 05:18:21;;;;;;;12.02;3.30;;;12.00;65.50;;;;;;5117023;27;20182;-65
2023/02/27 05:21:05;;;;;;;11.43;3.97;;;12.00;64.60;;;;;;5119228;27;20084;-66
2023/02/27 05:23:39;;;;;;;8.75;2.53;;;12.00;64.80;;;;;;5121692;27;20068;-65
2023/02/27 05:26:26;;;;;;;16.75;3.70;;;12.00;64.60;;;;;;5117740;27;20093;-65
2023/02/27 05:29:02;;;;;;;11.90;4.05;;;11.90;65.40;;;;;;5120609;27;20072;-65
2023/02/27 05:31:40;;;;;;;19.85;4.43;;;12.00;66.00;;;;;;5117110;27;20087;-64
2023/02/27 05:34:15;;;;;;;16.75;6.28;;;12.00;66.10;;;;;;5118445;27;20125;-64
2023/02/27 05:37:05;;;;;;;16.10;6.65;;;12.10;66.10;;;;;;5116453;27;20118;-64
2023/02/27 05:39:36;;;;;;;18.83;6.63;;;12.10;65.80;;;;;;5119033;27;20084;-66
2023/02/27 05:42:28;;;;;;;14.38;6.72;;;12.00;66.10;;;;;;5120250;27;20233;-65
2023/02/27 05:45:10;;;;;;;19.80;7.05;;;12.00;66.80;;;;;;5114910;27;20165;-65
2023/02/27 05:47:43;;;;;;;18.10;6.22;;;11.90;66.60;;;;;;5114902;27;20068;-64
2023/02/27 05:50:20;;;;;;;28.63;7.65;;;11.80;67.60;;;;;;5119784;27;20587;-65
2023/02/27 05:52:48;;;;;;;17.88;6.70;;;11.80;67.90;;;;;;5114997;27;20076;-64
2023/02/27 05:55:21;;;;;;;18.73;7.15;;;11.60;67.70;;;;;;5116105;27;20073;-65
2023/02/27 05:57:55;;;;;;;28.10;7.60;;;11.60;68.10;;;;;;5115402;27;20084;-64
2023/02/27 06:00:34;;;;;;;15.50;7.43;;;11.50;68.30;;;;;;5113677;27;20079;-65
2023/02/27 06:03:04;;;;;;;14.88;7.05;;;11.40;68.70;;;;;;5118183;27;20155;-66
2023/02/27 06:05:30;;;;;;;19.95;6.88;;;11.40;69.20;;;;;;5116478;27;20468;-65
2023/02/27 06:07:57;;;;;;;19.67;6.00;;;11.50;69.40;;;;;;5122380;27;20087;-65
2023/02/27 06:10:23;;;;;;;;;;;11.50;69.40;;;;;;5123088;27;20107;-65
2023/02/27 06:12:49;;;;;;;14.75;4.68;;;11.50;69.30;;;;;;5119731;27;19956;-66
2023/02/27 06:15:17;;;;;;;;;;;11.50;69.30;;;;;;5119516;27;20092;-65
2023/02/27 06:17:44;;;;;;;11.93;4.00;;;11.50;69.40;;;;;;5121301;27;19998;-68
2023/02/27 06:20:11;;;;;;;10.60;3.50;;;11.50;69.50;;;;;;5120251;27;20161;-69
2023/02/27 06:22:37;;;;;;;8.90;2.88;;;11.50;69.50;;;;;;5113846;27;20078;-68
2023/02/27 06:25:03;;;;;;;;;;;11.60;69.60;;;;;;5119534;27;20427;-68
2023/02/27 06:27:30;;;;;;;6.78;2.42;;;11.60;69.50;;;;;;5117258;27;19959;-70
2023/02/27 06:29:56;;;;;;;;;;;11.60;69.10;;;;;;5117471;27;20094;-66
2023/02/27 06:32:24;;;;;;;14.13;3.42;;;11.50;69.70;;;;;;5111167;27;20421;-66
2023/02/27 06:34:51;;;;;;;6.95;2.05;;;11.50;69.50;;;;;;5114246;27;20506;-66
2023/02/27 06:37:18;;;;;;;15.82;2.85;;;11.50;70.10;;;;;;5114026;27;20125;-67
2023/02/27 06:39:44;;;;;;;6.13;2.30;;;11.50;70.30;;;;;;5117080;27;20088;-67
2023/02/27 06:42:10;;;;;;;;;;;11.40;70.10;;;;;;5114961;27;20122;-65
2023/02/27 06:44:36;;;;;;;14.02;2.33;;;11.50;70.10;;;;;;5112902;27;19967;-65
2023/02/27 06:47:02;;;;;;;;;;;11.40;70.20;;;;;;5119679;27;20099;-65
2023/02/27 06:49:29;;;;;;;7.18;1.90;;;11.40;70.10;;;;;;5111609;27;20000;-66
2023/02/27 06:51:55;;;;;;;;;;;11.30;70.20;;;;;;5118288;27;20541;-66
2023/02/27 06:54:21;;;;;;;5.90;1.70;;;11.30;70.20;;;;;;5113535;27;19956;-66
2023/02/27 06:56:49;;;;;;;7.00;1.73;;;11.20;70.50;;;;;;5113164;27;20125;-67
2023/02/27 06:59:15;;;;;;;6.50;1.42;;;11.20;70.60;;;;;;5112126;27;20096;-67
2023/02/27 07:01:42;;;;;;;9.32;4.45;;;11.20;70.80;;;;;;5111514;27;20171;-67
2023/02/27 07:04:11;;;;;;;;;;;11.10;70.60;;;;;;5111016;27;20071;-66
2023/02/27 07:06:37;;;;;;;8.18;3.25;;;11.10;70.50;;;;;;5112010;27;19979;-67
2023/02/27 07:09:03;;;;;;;;;;;11.00;71.30;;;;;;5119092;27;20473;-65
2023/02/27 07:11:29;;;;;;;11.45;1.85;;;10.90;71.60;;;;;;5117110;27;20013;-66
2023/02/27 07:13:56;;;;;;;;;;;10.70;72.40;;;;;;5118616;27;20515;-67
2023/02/27 07:16:22;;;;;;;5.43;1.55;;;10.60;72.70;;;;;;5116776;27;20006;-66
2023/02/27 07:18:48;;;;;;;5.32;0.95;;;10.50;73.30;;;;;;5112219;28;20104;-66
2023/02/27 07:21:14;;;;;;;;;;;10.60;73.20;;;;;;5116638;28;20088;-66
2023/02/27 07:23:41;;;;;;;7.03;1.15;;;10.70;73.20;;;;;;5110279;28;20739;-66
2023/02/27 07:26:08;;;;;;;7.28;1.30;;;10.80;72.60;;;;;;5111952;27;20521;-66
2023/02/27 07:28:35;;;;;;;7.18;1.83;;;10.80;72.20;;;;;;5111470;28;20569;-67
2023/02/27 07:31:01;;;;;;;9.32;1.50;;;10.80;71.80;;;;;;5110476;28;20076;-66
2023/02/27 07:33:27;;;;;;;5.18;1.42;;;10.80;71.50;;;;;;5108394;28;20114;-68
2023/02/27 07:35:54;;;;;;;3.80;1.58;;;10.80;71.80;;;;;;5110295;28;20096;-66
2023/02/27 07:38:22;;;;;;;;;;;10.80;72.00;;;;;;5111879;28;20498;-66
2023/02/27 07:40:49;;;;;;;6.22;1.48;;;10.80;73.00;;;;;;5112416;28;20372;-67
2023/02/27 07:43:15;;;;;;;4.28;1.95;;;10.70;72.40;;;;;;5112668;28;20088;-65
2023/02/27 07:45:41;;;;;;;;;;;10.60;72.90;;;;;;5111050;28;20058;-64
2023/02/27 07:48:08;;;;;;;5.85;1.80;;;10.50;72.80;;;;;;5114584;27;19967;-65
2023/02/27 07:50:34;;;;;;;4.65;1.88;;;10.50;73.80;;;;;;5110702;27;20091;-66
2023/02/27 07:53:00;;;;;;;;;;;10.30;74.50;;;;;;5110094;28;20124;-66
2023/02/27 07:55:27;;;;;;;4.32;1.73;;;10.20;75.30;;;;;;5115431;27;20444;-65
2023/02/27 07:57:52;;;;;;;;;;;10.30;74.80;;;;;;5111019;28;20069;-66
2023/02/27 08:00:19;;;;;;;19.67;2.45;;;10.30;74.60;;;;;;5112718;28;19987;-65
2023/02/27 08:02:46;;;;;;;5.45;1.50;;;10.30;74.80;;;;;;5112081;28;20071;-65
2023/02/27 08:05:12;;;;;;;;;;;10.30;76.00;;;;;;5118148;28;20082;-64
2023/02/27 08:07:38;;;;;;;8.65;1.58;;;10.30;76.10;;;;;;5114716;28;19970;-65
2023/02/27 08:10:05;;;;;;;;;;;10.30;75.90;;;;;;5112450;28;20079;-66
2023/02/27 08:12:31;;;;;;;6.25;2.22;;;10.20;75.70;;;;;;5115974;28;19976;-65
2023/02/27 08:14:57;;;;;;;;;;;10.20;75.50;;;;;;5111041;28;20097;-65
2023/02/27 08:17:23;;;;;;;11.02;2.75;;;10.20;75.60;;;;;;5118922;28;20006;-65
2023/02/27 08:19:49;;;;;;;;;;;10.20;76.00;;;;;;5113827;28;20149;-65
2023/02/27 08:22:16;;;;;;;5.80;2.25;;;10.20;75.80;;;;;;5113674;28;19960;-66
2023/02/27 08:24:42;;;;;;;;;;;10.10;76.00;;;;;;5110166;28;20545;-65
2023/02/27 08:27:08;;;;;;;11.77;3.50;;;10.10;76.10;;;;;;5113033;27;20058;-67
2023/02/27 08:29:34;;;;;;;;;;;10.10;76.20;;;;;;5116148;27;20133;-66
2023/02/27 08:32:03;;;;;;;9.30;2.92;;;10.10;76.20;;;;;;5113498;27;19952;-66
2023/02/27 08:34:29;;;;;;;7.30;2.92;;;10.00;76.30;;;;;;5113835;27;20067;-65
2023/02/27 08:36:56;;;;;;;6.32;2.95;;;9.90;77.20;;;;;;5118343;27;20080;-66
2023/02/27 08:39:24;;;;;;;;;;;9.70;77.90;;;;;;5116677;27;20552;-65
2023/02/27 08:41:52;;;;;;;8.32;2.90;;;9.80;77.50;;;;;;5118997;27;19958;-65
2023/02/27 08:44:19;;;;;;;8.00;2.22;;;9.80;77.00;;;;;;5114722;27;20080;-65
2023/02/27 08:46:46;;;;;;;10.52;2.42;;;9.90;76.90;;;;;;5114895;27;20155;-66
2023/02/27 08:49:12;;;;;;;6.32;2.55;;;9.90;76.70;;;;;;5118032;27;20069;-66
2023/02/27 08:51:39;;;;;;;7.88;2.03;;;9.90;76.80;;;;;;5115464;27;20068;-66
2023/02/27 08:54:05;;;;;;;;;;;9.90;76.90;;;;;;5115799;27;20080;-66
2023/02/27 08:56:33;;;;;;;8.00;2.83;;;9.90;77.10;;;;;;5114561;27;19963;-66
2023/02/27 08:58:59;;;;;;;10.52;3.38;;;9.80;77.40;;;;;;5116890;27;20083;-68
2023/02/27 09:01:30;;;;;;;11.65;2.63;;;9.80;77.60;;;;;;5114647;27;20087;-65
2023/02/27 09:03:56;;;;;;;5.32;2.38;;;9.80;78.00;;;;;;5111977;27;20076;-65
2023/02/27 09:06:22;;;;;;;;;;;9.70;78.00;;;;;;5119260;27;20071;-65
2023/02/27 09:08:49;;;;;;;9.38;2.13;;;9.70;78.30;;;;;;5116780;27;20100;-66
2023/02/27 09:11:15;;;;;;;;;;;9.60;78.60;;;;;;5113494;27;20444;-65
2023/02/27 09:13:41;;;;;;;9.68;2.53;;;9.70;79.00;;;;;;5114051;27;19976;-66
2023/02/27 09:16:07;;;;;;;;;;;9.60;79.20;;;;;;5123258;27;20084;-66
2023/02/27 09:18:33;;;;;;;6.65;2.28;;;9.60;79.70;;;;;;5113740;27;19979;-67
2023/02/27 09:20:59;;;;;;;;;;;9.60;79.80;;;;;;5115457;27;20072;-66
2023/02/27 09:23:26;;;;;;;6.53;2.13;;;9.50;80.00;;;;;;5113075;27;19956;-65
2023/02/27 09:25:52;;;;;;;;;;;9.50;79.80;;;;;;5115911;27;20459;-66
2023/02/27 09:28:20;;;;;;;5.80;2.90;;;9.50;79.80;;;;;;5115915;27;20429;-65
2023/02/27 09:30:46;;;;;;;9.68;3.83;;;9.40;80.00;;;;;;5110120;27;20087;-65
2023/02/27 09:33:14;;;;;;;9.38;4.07;;;9.50;80.00;;;;;;5116764;27;20097;-66
2023/02/27 09:35:41;;;;;;;9.20;4.45;;;9.30;80.60;;;;;;5121317;27;20068;-67
2023/02/27 09:38:07;;;;;;;10.38;3.70;;;9.20;81.40;;;;;;5114722;27;20087;-67
2023/02/27 09:40:40;;;;;;;10.65;3.42;;;9.20;81.70;;;;;;5111592;27;20493;-66
2023/02/27 09:43:36;;;;;;;11.82;3.35;;;9.20;81.90;;;;;;5112394;27;20075;-67
2023/02/27 09:46:03;;;;;;;8.93;3.08;;;9.30;81.50;;;;;;5114343;27;20540;-66
2023/02/27 09:48:38;;;;;;;6.43;2.90;;;9.30;81.40;;;;;;5116139;27;20076;-66
2023/02/27 09:51:05;;;;;;;7.13;2.33;;;9.30;81.40;;;;;;5116798;27;20129;-67
2023/02/27 09:53:52;;;;;;;5.93;2.40;;;9.30;81.50;;;;;;5112615;27;20074;-67
2023/02/27 09:56:23;;;;;;;8.90;2.33;;;9.40;81.70;;;;;;5111159;27;20091;-67
2023/02/27 09:59:12;;;;;;;9.15;2.60;;;9.30;81.60;;;;;;5116823;27;20171;-67
2023/02/27 10:02:08;;;;;;;8.85;2.78;;;9.40;81.80;;;;;;5113277;27;20075;-67
2023/02/27 10:04:57;;;;;;;8.40;2.85;;;9.30;81.70;;;;;;5118625;27;20159;-66
2023/02/27 10:07:29;;;;;;;6.28;2.38;;;9.20;82.50;;;;;;5115342;27;20549;-65
2023/02/27 10:09:55;;;;;;;9.13;2.53;;;9.20;82.30;;;;;;5113311;27;20084;-66
2023/02/27 10:12:26;;;;;;;;;;;9.20;82.40;;;;;;5113411;27;20151;-67
2023/02/27 10:15:09;;;;;;;8.60;2.75;;;9.20;82.70;;;;;;5110302;27;19957;-65
2023/02/27 10:17:48;;;;;;;10.50;3.13;;;9.10;83.10;;;;;;5112142;27;20173;-65
2023/02/27 10:21:01;;;;;;;10.55;3.13;;;9.00;83.80;;;;;;5109939;27;20124;-67
2023/02/27 10:23:33;;;;;;;11.88;3.20;;;9.00;84.00;;;;;;5110991;27;20133;-66
2023/02/27 10:26:01;;;;;;;6.60;2.63;;;9.00;83.40;;;;;;5115723;27;20064;-66
2023/02/27 10:28:29;;;;;;;7.22;2.63;;;9.00;83.80;;;;;;5112220;27;20068;-65
2023/02/27 10:31:00;;;;;;;10.95;3.50;;;9.00;84.00;;;;;;5111912;27;20475;-67
2023/02/27 10:33:36;;;;;;;7.97;3.00;;;8.90;84.30;;;;;;5111741;27;20072;-65
2023/02/27 10:36:09;;;;;;;8.85;3.45;;;8.90;85.30;;;;;;5113407;27;20082;-66
2023/02/27 10:38:54;;;;;;;7.15;3.20;;;8.80;84.90;;;;;;5109262;27;20543;-67
2023/02/27 10:41:22;;;;;;;11.90;3.72;;;8.70;85.20;;;;;;5115029;27;20072;-64
2023/02/27 10:43:50;;;;;;;12.27;3.90;;;8.70;86.40;;;;;;5118242;27;20068;-66
2023/02/27 10:46:22;;;;;;;7.95;3.17;;;8.70;86.70;;;;;;5115614;27;20101;-65
2023/02/27 10:48:49;;;;;;;13.18;3.22;;;8.80;86.10;;;;;;5112007;27;20124;-67
2023/02/27 10:51:23;;;;;;;7.63;3.13;;;8.80;85.70;;;;;;5113577;27;20080;-68
2023/02/27 10:53:53;;;;;;;11.00;3.40;;;8.70;85.60;;;;;;5114744;27;20081;-67
2023/02/27 10:56:27;;;;;;;6.97;3.38;;;8.70;86.10;;;;;;5112252;27;20079;-67
2023/02/27 10:59:05;;;;;;;9.25;3.10;;;8.80;86.20;;;;;;5116249;27;20080;-65
2023/02/27 11:01:48;;;;;;;8.13;3.28;;;8.70;87.10;;;;;;5114302;27;20115;-66
2023/02/27 11:04:28;;;;;;;9.40;3.30;;;8.70;86.50;;;;;;5113809;27;20080;-66
2023/02/27 11:06:55;;;;;;;8.80;2.90;;;8.60;86.90;;;;;;5112876;27;20088;-67
2023/02/27 11:09:32;;;;;;;7.65;2.63;;;8.60;87.10;;;;;;5116114;27;20202;-65
2023/02/27 11:12:27;;;;;;;9.70;2.78;;;8.60;87.20;;;;;;5116684;27;20104;-66
2023/02/27 11:15:00;;;;;;;9.65;3.30;;;8.40;87.90;;;;;;5113960;27;20076;-65
2023/02/27 11:17:31;;;;;;;9.13;3.22;;;8.30;88.50;;;;;;5110833;27;20086;-66
2023/02/27 11:20:00;;;;;;;7.78;3.08;;;8.20;89.00;;;;;;5110456;28;20112;-65
2023/02/27 11:22:31;;;;;;;9.73;3.05;;;8.30;88.90;;;;;;5116468;28;20072;-66
2023/02/27 11:25:29;;;;;;;10.57;3.20;;;8.40;88.50;;;;;;5113941;28;20102;-67
2023/02/27 11:28:24;;;;;;;7.15;3.17;;;8.40;88.50;;;;;;5087251;28;20118;-65
2023/02/27 11:31:15;;;;;;;7.88;3.63;;;8.30;89.00;;;;;;5086450;28;20089;-66
2023/02/27 11:33:56;;;;;;;12.88;3.88;;;8.30;89.30;;;;;;5087254;28;20487;-67
2023/02/27 11:36:41;;;;;;;8.70;3.85;;;8.40;89.00;;;;;;5086823;28;20125;-65
2023/02/27 11:39:30;;;;;;;9.60;3.80;;;8.40;89.10;;;;;;5086457;28;20107;-65
2023/02/27 11:42:06;;;;;;;13.98;4.60;;;8.40;89.10;;;;;;5086946;28;20072;-62
2023/02/27 11:44:33;;;;;;;15.65;4.57;;;8.30;89.10;;;;;;5086526;28;20117;-67
2023/02/27 11:47:22;;;;;;;12.40;4.70;;;8.30;89.30;;;;;;5087396;28;20114;-67
2023/02/27 11:50:22;;;;;;;16.85;5.18;;;8.10;89.20;;;;;;5087201;28;20553;-65
2023/02/27 11:52:52;;;;;;;11.35;5.20;;;8.10;90.30;;;;;;5082966;28;20093;-67
2023/02/27 11:55:28;;;;;;;22.67;6.60;;;8.10;90.20;;;;;;5086306;28;20080;-67
2023/02/27 11:58:09;;;;;;;16.50;6.60;;;8.10;90.20;;;;;;5086947;28;20091;-67
2023/02/27 12:00:42;;;;;;;18.50;6.78;;;8.10;90.10;;;;;;5086709;28;20103;-67
2023/02/27 12:03:35;;;;;;;21.25;7.40;;;8.10;90.40;;;;;;5098409;28;20167;-67
2023/02/27 12:06:05;;;;;;;23.02;8.90;;;8.10;90.40;;;;;;5118960;27;20422;-66
2023/02/27 12:09:14;;;;;;;21.95;8.35;;;8.10;90.30;;;;;;5118224;27;20162;-66
2023/02/27 12:11:44;;;;;;;28.25;9.50;;;8.20;90.20;;;;;;5089329;27;20080;-66
2023/02/27 12:14:26;;;;;;;27.63;9.68;;;8.20;90.00;;;;;;5121564;27;20120;-65
2023/02/27 12:17:30;;;;;;;19.13;9.75;;;8.10;89.90;;;;;;5119145;27;20072;-65
2023/02/27 12:20:42;;;;;;;33.15;10.60;;;8.00;90.00;;;;;;5113597;27;20143;-67
2023/02/27 12:23:27;;;;;;;29.33;11.88;;;7.90;90.60;;;;;;5093680;27;20088;-65
2023/02/27 12:26:03;;;;;;;28.42;11.30;;;8.00;90.50;;;;;;5115353;27;20155;-66
2023/02/27 12:28:52;;;;;;;35.15;13.07;;;8.00;90.40;;;;;;5117304;27;20085;-65
2023/02/27 12:31:48;;;;;;;32.70;13.40;;;7.90;90.40;;;;;;5116040;27;20072;-65
2023/02/27 12:34:35;;;;;;;34.28;16.15;;;7.90;90.50;;;;;;5116462;27;20091;-65
2023/02/27 12:37:11;;;;;;;47.85;21.48;;;7.90;90.80;;;;;;5118140;27;20084;-67
2023/02/27 12:39:39;;;;;;;53.10;20.98;;;8.00;90.70;;;;;;5115688;27;20087;-67
2023/02/27 12:42:24;;;;;;;49.15;20.75;;;8.00;90.40;;;;;;5120574;27;20124;-65
2023/02/27 12:45:21;;;;;;;51.38;21.45;;;8.00;90.30;;;;;;5114308;27;20083;-65
2023/02/27 12:48:03;;;;;;;54.03;23.67;;;8.00;90.30;;;;;;5115978;27;20086;-66
2023/02/27 12:50:51;;;;;;;54.92;22.27;;;7.90;90.40;;;;;;5116973;27;20175;-66
2023/02/27 12:53:46;;;;;;;;;;;8.00;90.50;;;;;;5117936;27;20080;-66
2023/02/27 12:56:22;;;;;;;61.88;23.08;;;7.90;90.20;;;;;;5107919;27;20082;-67
2023/02/27 12:59:07;;;;;;;53.65;26.20;;;7.90;90.50;;;;;;5115623;27;20087;-66
2023/02/27 13:01:46;;;;;;;55.40;24.33;;;7.90;90.60;;;;;;5115923;27;20072;-66
2023/02/27 13:04:24;;;;;;;54.35;23.75;;;7.80;90.60;;;;;;5118376;27;20078;-66
2023/02/27 13:07:20;;;;;;;52.33;22.40;;;7.80;90.60;;;;;;5115431;27;20104;-66
2023/02/27 13:09:53;;;;;;;53.58;22.95;;;7.80;90.70;;;;;;5118700;27;20132;-64
2023/02/27 13:12:42;;;;;;;40.40;19.83;;;7.70;90.80;;;;;;5114241;27;20567;-66
2023/02/27 13:15:34;;;;;;;50.22;21.33;;;7.60;91.00;;;;;;5115735;27;20102;-65
2023/02/27 13:18:07;;;;;;;48.22;19.45;;;7.60;91.20;;;;;;5113682;27;20095;-65
2023/02/27 13:20:48;;;;;;;48.10;20.02;;;7.60;91.10;;;;;;5114019;27;20100;-64
2023/02/27 13:23:31;;;;;;;47.60;20.65;;;7.70;91.00;;;;;;5113465;27;20074;-65
2023/02/27 13:25:59;;;;;;;48.17;20.73;;;7.60;90.90;;;;;;5114025;27;20529;-66
2023/02/27 13:28:28;;;;;;;51.35;20.98;;;7.50;91.60;;;;;;5116839;27;20079;-64
2023/02/27 13:31:06;;;;;;;58.15;21.38;;;7.50;91.40;;;;;;5115882;27;20078;-65
2023/02/27 13:33:42;;;;;;;61.72;25.73;;;7.50;91.60;;;;;;5111458;27;20150;-65